sensor_id;sensor_type;location;lat;lon;timestamp;temperature;humidity
26479;DHT22;14163;-26.142;27.992;2023-08-06T00:03:20;9.90;99.90
26479;DHT22;14163;-26.142;27.992;2023-08-06T00:05:49;10.10;99.90
26479;DHT22;14163;-26.142;27.992;2023-08-06T00:08:18;10.70;99.90
26479;DHT22;14163;-26.142;27.992;2023-08-06T00:10:48;11.40;99.90
26479;DHT22;14163;-26.142;27.992;2023-08-06T00:13:17;12.20;99.90
26479;DHT22;14163;-26.142;27.992;2023-08-06T00:15:47;12.80;99.90
26479;DHT22;14163;-26.142;27.992;2023-08-06T00:18:16;13.20;99.90
26479;DHT22;14163;-26.142;27.992;2023-08-06T00:20:47;13.40;99.90
26479;DHT22;14163;-26.142;27.992;2023-08-06T00:23:16;13.70;99.90
26479;DHT22;14163;-26.142;27.992;2023-08-06T00:25:45;13.80;99.90
26479;DHT22;14163;-26.142;27.992;2023-08-06T00:28:14;13.90;99.90
26479;DHT22;14163;-26.142;27.992;2023-08-06T00:30:44;14.00;99.90
26479;DHT22;14163;-26.142;27.992;2023-08-06T00:33:13;14.10;99.90
26479;DHT22;14163;-26.142;27.992;2023-08-06T00:35:42;14.10;99.90
26479;DHT22;14163;-26.142;27.992;2023-08-06T00:38:13;14.10;99.90
26479;DHT22;14163;-26.142;27.992;2023-08-06T00:40:42;14.10;99.90
26479;DHT22;14163;-26.142;27.992;2023-08-06T00:43:11;14.00;99.90
26479;DHT22;14163;-26.142;27.992;2023-08-06T00:45:40;14.00;99.90
26479;DHT22;14163;-26.142;27.992;2023-08-06T00:48:10;13.90;99.90
26479;DHT22;14163;-26.142;27.992;2023-08-06T00:50:39;14.00;99.90
26479;DHT22;14163;-26.142;27.992;2023-08-06T00:53:09;14.00;99.90
26479;DHT22;14163;-26.142;27.992;2023-08-06T00:55:40;13.90;99.90
26479;DHT22;14163;-26.142;27.992;2023-08-06T00:58:10;13.80;99.90
26479;DHT22;14163;-26.142;27.992;2023-08-06T01:00:40;13.80;99.90
26479;DHT22;14163;-26.142;27.992;2023-08-06T01:03:09;13.80;99.90
26479;DHT22;14163;-26.142;27.992;2023-08-06T01:05:38;13.80;99.90
26479;DHT22;14163;-26.142;27.992;2023-08-06T01:08:16;13.90;99.90
26479;DHT22;14163;-26.142;27.992;2023-08-06T01:11:00;13.90;99.90
26479;DHT22;14163;-26.142;27.992;2023-08-06T01:13:36;13.90;99.90
26479;DHT22;14163;-26.142;27.992;2023-08-06T01:16:08;13.80;99.90
26479;DHT22;14163;-26.142;27.992;2023-08-06T01:18:38;13.70;99.90
26479;DHT22;14163;-26.142;27.992;2023-08-06T01:21:10;13.60;99.90
26479;DHT22;14163;-26.142;27.992;2023-08-06T01:23:39;13.60;99.90
26479;DHT22;14163;-26.142;27.992;2023-08-06T01:26:14;13.60;99.90
26479;DHT22;14163;-26.142;27.992;2023-08-06T01:28:51;13.60;99.90
26479;DHT22;14163;-26.142;27.992;2023-08-06T01:31:24;13.60;99.90
26479;DHT22;14163;-26.142;27.992;2023-08-06T01:33:56;13.60;99.90
26479;DHT22;14163;-26.142;27.992;2023-08-06T01:36:29;13.60;99.90
26479;DHT22;14163;-26.142;27.992;2023-08-06T01:38:59;13.70;99.90
26479;DHT22;14163;-26.142;27.992;2023-08-06T01:41:28;13.70;99.90
26479;DHT22;14163;-26.142;27.992;2023-08-06T01:43:58;13.60;99.90
26479;DHT22;14163;-26.142;27.992;2023-08-06T01:46:27;13.60;99.90
26479;DHT22;14163;-26.142;27.992;2023-08-06T01:48:56;13.70;99.90
26479;DHT22;14163;-26.142;27.992;2023-08-06T01:51:27;13.70;99.90
26479;DHT22;14163;-26.142;27.992;2023-08-06T01:53:56;13.70;99.90
26479;DHT22;14163;-26.142;27.992;2023-08-06T01:56:25;13.70;99.90
26479;DHT22;14163;-26.142;27.992;2023-08-06T01:58:55;13.70;99.90
26479;DHT22;14163;-26.142;27.992;2023-08-06T02:01:24;13.70;99.90
26479;DHT22;14163;-26.142;27.992;2023-08-06T02:03:53;13.70;99.90
26479;DHT22;14163;-26.142;27.992;2023-08-06T02:06:22;13.70;99.90
26479;DHT22;14163;-26.142;27.992;2023-08-06T02:08:53;13.80;99.90
26479;DHT22;14163;-26.142;27.992;2023-08-06T02:11:22;13.70;99.90
26479;DHT22;14163;-26.142;27.992;2023-08-06T02:13:52;13.60;99.90
26479;DHT22;14163;-26.142;27.992;2023-08-06T02:16:21;13.60;99.90
26479;DHT22;14163;-26.142;27.992;2023-08-06T02:18:50;13.50;99.90
26479;DHT22;14163;-26.142;27.992;2023-08-06T02:21:19;13.50;99.90
26479;DHT22;14163;-26.142;27.992;2023-08-06T02:23:49;13.50;99.90
26479;DHT22;14163;-26.142;27.992;2023-08-06T02:26:19;13.60;99.90
26479;DHT22;14163;-26.142;27.992;2023-08-06T02:28:49;13.60;99.90
26479;DHT22;14163;-26.142;27.992;2023-08-06T02:31:18;13.60;99.90
26479;DHT22;14163;-26.142;27.992;2023-08-06T02:33:47;13.50;99.90
26479;DHT22;14163;-26.142;27.992;2023-08-06T02:36:16;13.40;99.90
26479;DHT22;14163;-26.142;27.992;2023-08-06T02:38:46;13.40;99.90
26479;DHT22;14163;-26.142;27.992;2023-08-06T02:41:15;13.30;99.90
26479;DHT22;14163;-26.142;27.992;2023-08-06T02:43:46;13.20;99.90
26479;DHT22;14163;-26.142;27.992;2023-08-06T02:46:17;13.30;99.90
26479;DHT22;14163;-26.142;27.992;2023-08-06T02:48:47;13.30;99.90
26479;DHT22;14163;-26.142;27.992;2023-08-06T02:51:16;13.30;99.90
26479;DHT22;14163;-26.142;27.992;2023-08-06T02:53:47;13.20;99.90
26479;DHT22;14163;-26.142;27.992;2023-08-06T02:56:17;13.20;99.90
26479;DHT22;14163;-26.142;27.992;2023-08-06T02:58:48;13.20;99.90
26479;DHT22;14163;-26.142;27.992;2023-08-06T03:01:17;13.20;99.90
26479;DHT22;14163;-26.142;27.992;2023-08-06T03:03:46;13.20;99.90
26479;DHT22;14163;-26.142;27.992;2023-08-06T03:06:15;13.20;99.90
26479;DHT22;14163;-26.142;27.992;2023-08-06T03:08:45;13.20;99.90
26479;DHT22;14163;-26.142;27.992;2023-08-06T03:11:14;13.20;99.90
26479;DHT22;14163;-26.142;27.992;2023-08-06T03:13:43;13.20;99.90
26479;DHT22;14163;-26.142;27.992;2023-08-06T03:16:14;13.20;99.90
26479;DHT22;14163;-26.142;27.992;2023-08-06T03:18:44;13.20;99.90
26479;DHT22;14163;-26.142;27.992;2023-08-06T03:21:13;13.10;99.90
26479;DHT22;14163;-26.142;27.992;2023-08-06T03:23:42;13.10;99.90
26479;DHT22;14163;-26.142;27.992;2023-08-06T03:26:11;13.10;99.90
26479;DHT22;14163;-26.142;27.992;2023-08-06T03:28:41;13.10;99.90
26479;DHT22;14163;-26.142;27.992;2023-08-06T03:31:10;13.20;99.90
26479;DHT22;14163;-26.142;27.992;2023-08-06T03:33:41;13.10;99.90
26479;DHT22;14163;-26.142;27.992;2023-08-06T03:36:10;13.10;99.90
26479;DHT22;14163;-26.142;27.992;2023-08-06T03:38:39;13.10;99.90
26479;DHT22;14163;-26.142;27.992;2023-08-06T03:41:09;13.10;99.90
26479;DHT22;14163;-26.142;27.992;2023-08-06T03:43:38;13.10;99.90
26479;DHT22;14163;-26.142;27.992;2023-08-06T03:46:07;13.10;99.90
26479;DHT22;14163;-26.142;27.992;2023-08-06T03:48:36;13.00;99.90
26479;DHT22;14163;-26.142;27.992;2023-08-06T03:51:07;13.10;99.90
26479;DHT22;14163;-26.142;27.992;2023-08-06T03:53:37;13.10;99.90
26479;DHT22;14163;-26.142;27.992;2023-08-06T03:56:06;13.00;99.90
26479;DHT22;14163;-26.142;27.992;2023-08-06T03:58:35;13.00;99.90
26479;DHT22;14163;-26.142;27.992;2023-08-06T04:01:04;13.00;99.90
26479;DHT22;14163;-26.142;27.992;2023-08-06T04:03:33;13.00;99.90
26479;DHT22;14163;-26.142;27.992;2023-08-06T04:06:03;13.10;99.90
26479;DHT22;14163;-26.142;27.992;2023-08-06T04:08:34;13.00;99.90
26479;DHT22;14163;-26.142;27.992;2023-08-06T04:11:03;13.00;99.90
26479;DHT22;14163;-26.142;27.992;2023-08-06T04:13:33;13.00;99.90
26479;DHT22;14163;-26.142;27.992;2023-08-06T04:16:02;13.00;99.90
26479;DHT22;14163;-26.142;27.992;2023-08-06T04:18:32;13.00;99.90
26479;DHT22;14163;-26.142;27.992;2023-08-06T04:21:02;13.00;99.90
26479;DHT22;14163;-26.142;27.992;2023-08-06T04:23:33;12.90;99.90
26479;DHT22;14163;-26.142;27.992;2023-08-06T04:26:03;12.90;99.90
26479;DHT22;14163;-26.142;27.992;2023-08-06T04:28:32;12.90;99.90
26479;DHT22;14163;-26.142;27.992;2023-08-06T04:31:01;12.90;99.90
26479;DHT22;14163;-26.142;27.992;2023-08-06T04:33:30;12.90;99.90
26479;DHT22;14163;-26.142;27.992;2023-08-06T04:36:00;12.80;99.90
26479;DHT22;14163;-26.142;27.992;2023-08-06T04:38:29;12.80;99.90
26479;DHT22;14163;-26.142;27.992;2023-08-06T04:41:01;12.80;99.90
26479;DHT22;14163;-26.142;27.992;2023-08-06T04:43:30;12.70;99.90
26479;DHT22;14163;-26.142;27.992;2023-08-06T04:46:00;12.70;99.90
26479;DHT22;14163;-26.142;27.992;2023-08-06T04:48:29;12.80;99.90
26479;DHT22;14163;-26.142;27.992;2023-08-06T04:50:58;12.80;99.90
26479;DHT22;14163;-26.142;27.992;2023-08-06T04:53:28;12.70;99.90
26479;DHT22;14163;-26.142;27.992;2023-08-06T04:55:57;12.70;99.90
26479;DHT22;14163;-26.142;27.992;2023-08-06T04:58:28;12.70;99.90
26479;DHT22;14163;-26.142;27.992;2023-08-06T05:00:57;12.70;99.90
26479;DHT22;14163;-26.142;27.992;2023-08-06T05:03:26;12.80;99.90
26479;DHT22;14163;-26.142;27.992;2023-08-06T05:05:56;12.80;99.90
26479;DHT22;14163;-26.142;27.992;2023-08-06T05:08:25;12.80;99.90
26479;DHT22;14163;-26.142;27.992;2023-08-06T05:10:54;12.80;99.90
26479;DHT22;14163;-26.142;27.992;2023-08-06T05:13:23;12.70;99.90
26479;DHT22;14163;-26.142;27.992;2023-08-06T05:15:56;12.70;99.90
26479;DHT22;14163;-26.142;27.992;2023-08-06T05:18:25;12.70;99.90
26479;DHT22;14163;-26.142;27.992;2023-08-06T05:20:55;12.80;99.90
26479;DHT22;14163;-26.142;27.992;2023-08-06T05:23:24;12.80;99.90
26479;DHT22;14163;-26.142;27.992;2023-08-06T05:25:53;12.80;99.90
26479;DHT22;14163;-26.142;27.992;2023-08-06T05:28:22;12.80;99.90
26479;DHT22;14163;-26.142;27.992;2023-08-06T05:30:52;12.90;99.90
26479;DHT22;14163;-26.142;27.992;2023-08-06T05:33:23;12.90;99.90
26479;DHT22;14163;-26.142;27.992;2023-08-06T05:35:52;12.90;99.90
26479;DHT22;14163;-26.142;27.992;2023-08-06T05:38:21;12.90;99.90
26479;DHT22;14163;-26.142;27.992;2023-08-06T05:40:50;13.00;99.90
26479;DHT22;14163;-26.142;27.992;2023-08-06T05:43:19;13.00;99.90
26479;DHT22;14163;-26.142;27.992;2023-08-06T05:45:50;13.00;99.90
26479;DHT22;14163;-26.142;27.992;2023-08-06T05:48:24;13.10;99.90
26479;DHT22;14163;-26.142;27.992;2023-08-06T05:50:54;13.10;99.90
26479;DHT22;14163;-26.142;27.992;2023-08-06T05:53:23;13.20;99.90
26479;DHT22;14163;-26.142;27.992;2023-08-06T05:55:53;13.20;99.90
26479;DHT22;14163;-26.142;27.992;2023-08-06T05:58:22;13.30;99.90
26479;DHT22;14163;-26.142;27.992;2023-08-06T06:00:53;13.30;99.90
26479;DHT22;14163;-26.142;27.992;2023-08-06T08:04:03;11.40;99.90
26479;DHT22;14163;-26.142;27.992;2023-08-06T08:06:33;11.70;99.90
26479;DHT22;14163;-26.142;27.992;2023-08-06T08:09:03;12.30;99.90
26479;DHT22;14163;-26.142;27.992;2023-08-06T08:11:32;13.00;99.90
26479;DHT22;14163;-26.142;27.992;2023-08-06T08:14:01;13.70;99.90
26479;DHT22;14163;-26.142;27.992;2023-08-06T08:16:31;14.30;99.90
26479;DHT22;14163;-26.142;27.992;2023-08-06T08:19:02;14.80;99.90
26479;DHT22;14163;-26.142;27.992;2023-08-06T08:21:31;15.10;99.90
26479;DHT22;14163;-26.142;27.992;2023-08-06T08:24:01;15.30;99.90
26479;DHT22;14163;-26.142;27.992;2023-08-06T08:26:30;15.50;99.90
26479;DHT22;14163;-26.142;27.992;2023-08-06T08:28:59;15.60;99.90
26479;DHT22;14163;-26.142;27.992;2023-08-06T08:31:28;15.50;99.90
26479;DHT22;14163;-26.142;27.992;2023-08-06T08:33:58;15.50;99.90
26479;DHT22;14163;-26.142;27.992;2023-08-06T08:36:29;15.70;99.90
26479;DHT22;14163;-26.142;27.992;2023-08-06T08:38:58;16.10;99.90
26479;DHT22;14163;-26.142;27.992;2023-08-06T08:41:29;16.10;99.90
26479;DHT22;14163;-26.142;27.992;2023-08-06T08:43:59;16.10;99.90
26479;DHT22;14163;-26.142;27.992;2023-08-06T08:46:30;16.10;99.90
26479;DHT22;14163;-26.142;27.992;2023-08-06T08:49:00;16.40;99.10
26479;DHT22;14163;-26.142;27.992;2023-08-06T08:51:33;16.50;98.10
26479;DHT22;14163;-26.142;27.992;2023-08-06T08:54:04;16.70;97.80
26479;DHT22;14163;-26.142;27.992;2023-08-06T08:56:36;16.90;98.90
26479;DHT22;14163;-26.142;27.992;2023-08-06T08:59:05;17.00;96.10
26479;DHT22;14163;-26.142;27.992;2023-08-06T09:01:35;17.00;95.60
26479;DHT22;14163;-26.142;27.992;2023-08-06T09:04:06;17.20;95.60
26479;DHT22;14163;-26.142;27.992;2023-08-06T09:06:38;17.10;94.40
26479;DHT22;14163;-26.142;27.992;2023-08-06T09:09:12;17.10;94.40
26479;DHT22;14163;-26.142;27.992;2023-08-06T09:11:44;17.20;94.20
26479;DHT22;14163;-26.142;27.992;2023-08-06T09:14:15;17.50;94.00
26479;DHT22;14163;-26.142;27.992;2023-08-06T09:16:44;17.60;93.10
26479;DHT22;14163;-26.142;27.992;2023-08-06T09:19:13;17.60;93.20
26479;DHT22;14163;-26.142;27.992;2023-08-06T09:21:46;17.80;92.90
26479;DHT22;14163;-26.142;27.992;2023-08-06T09:24:16;18.00;92.40
26479;DHT22;14163;-26.142;27.992;2023-08-06T09:26:46;18.00;91.80
26479;DHT22;14163;-26.142;27.992;2023-08-06T09:29:15;18.30;91.10
26479;DHT22;14163;-26.142;27.992;2023-08-06T09:31:45;18.10;90.70
26479;DHT22;14163;-26.142;27.992;2023-08-06T09:34:16;18.10;90.20
26479;DHT22;14163;-26.142;27.992;2023-08-06T09:36:48;18.50;90.10
26479;DHT22;14163;-26.142;27.992;2023-08-06T09:39:18;18.80;89.10
26479;DHT22;14163;-26.142;27.992;2023-08-06T09:41:48;19.40;87.10
26479;DHT22;14163;-26.142;27.992;2023-08-06T09:44:26;19.80;86.90
26479;DHT22;14163;-26.142;27.992;2023-08-06T09:46:57;20.10;82.80
26479;DHT22;14163;-26.142;27.992;2023-08-06T09:49:27;20.40;82.00
26479;DHT22;14163;-26.142;27.992;2023-08-06T09:51:58;20.50;79.40
26479;DHT22;14163;-26.142;27.992;2023-08-06T09:54:28;20.60;78.60
26479;DHT22;14163;-26.142;27.992;2023-08-06T09:56:59;21.20;78.70
26479;DHT22;14163;-26.142;27.992;2023-08-06T09:59:29;22.00;75.80
26479;DHT22;14163;-26.142;27.992;2023-08-06T10:01:58;22.60;72.10
26479;DHT22;14163;-26.142;27.992;2023-08-06T10:04:29;22.70;70.10
26479;DHT22;14163;-26.142;27.992;2023-08-06T10:07:01;22.90;69.40
26479;DHT22;14163;-26.142;27.992;2023-08-06T10:09:31;23.10;66.10
26479;DHT22;14163;-26.142;27.992;2023-08-06T10:12:00;22.90;66.50
26479;DHT22;14163;-26.142;27.992;2023-08-06T10:14:32;22.70;64.60
26479;DHT22;14163;-26.142;27.992;2023-08-06T10:17:02;22.70;66.20
26479;DHT22;14163;-26.142;27.992;2023-08-06T10:19:32;23.40;65.70
26479;DHT22;14163;-26.142;27.992;2023-08-06T10:22:14;23.70;63.60
26479;DHT22;14163;-26.142;27.992;2023-08-06T10:24:50;24.30;62.70
26479;DHT22;14163;-26.142;27.992;2023-08-06T10:27:27;24.80;61.60
26479;DHT22;14163;-26.142;27.992;2023-08-06T10:32:51;24.80;59.30
26479;DHT22;14163;-26.142;27.992;2023-08-06T10:35:35;24.60;59.10
26479;DHT22;14163;-26.142;27.992;2023-08-06T10:38:08;25.00;58.80
26479;DHT22;14163;-26.142;27.992;2023-08-06T10:40:40;25.70;57.90
26479;DHT22;14163;-26.142;27.992;2023-08-06T10:43:25;25.80;56.30
26479;DHT22;14163;-26.142;27.992;2023-08-06T10:45:55;25.70;56.30
26479;DHT22;14163;-26.142;27.992;2023-08-06T10:48:33;25.60;55.90
26479;DHT22;14163;-26.142;27.992;2023-08-06T10:51:04;26.00;56.00
26479;DHT22;14163;-26.142;27.992;2023-08-06T10:53:35;26.60;54.90
26479;DHT22;14163;-26.142;27.992;2023-08-06T10:56:13;26.80;54.00
26479;DHT22;14163;-26.142;27.992;2023-08-06T10:58:43;26.60;53.80
26479;DHT22;14163;-26.142;27.992;2023-08-06T11:01:13;26.80;53.60
26479;DHT22;14163;-26.142;27.992;2023-08-06T11:03:43;27.30;53.10
26479;DHT22;14163;-26.142;27.992;2023-08-06T11:06:18;27.20;52.00
26479;DHT22;14163;-26.142;27.992;2023-08-06T11:08:52;27.00;52.00
26479;DHT22;14163;-26.142;27.992;2023-08-06T11:11:23;27.50;51.70
26479;DHT22;14163;-26.142;27.992;2023-08-06T11:13:52;27.90;51.20
26479;DHT22;14163;-26.142;27.992;2023-08-06T11:16:23;28.10;51.40
26479;DHT22;14163;-26.142;27.992;2023-08-06T11:18:53;28.00;50.80
26479;DHT22;14163;-26.142;27.992;2023-08-06T11:21:23;28.20;52.30
26479;DHT22;14163;-26.142;27.992;2023-08-06T11:23:55;28.50;53.30
26479;DHT22;14163;-26.142;27.992;2023-08-06T11:26:24;28.40;63.60
26479;DHT22;14163;-26.142;27.992;2023-08-06T11:28:54;27.90;67.30
26479;DHT22;14163;-26.142;27.992;2023-08-06T11:31:24;27.40;57.90
26479;DHT22;14163;-26.142;27.992;2023-08-06T11:33:54;26.80;53.10
26479;DHT22;14163;-26.142;27.992;2023-08-06T11:36:30;26.10;53.30
26479;DHT22;14163;-26.142;27.992;2023-08-06T11:39:02;24.80;55.10
26479;DHT22;14163;-26.142;27.992;2023-08-06T11:41:32;24.60;63.00
26479;DHT22;14163;-26.142;27.992;2023-08-06T11:44:03;24.60;56.90
26479;DHT22;14163;-26.142;27.992;2023-08-06T11:46:50;24.70;55.60
26479;DHT22;14163;-26.142;27.992;2023-08-06T11:49:38;24.80;54.10
26479;DHT22;14163;-26.142;27.992;2023-08-06T11:52:19;24.80;55.60
26479;DHT22;14163;-26.142;27.992;2023-08-06T11:55:00;24.60;52.90
26479;DHT22;14163;-26.142;27.992;2023-08-06T11:57:31;24.60;56.80
26479;DHT22;14163;-26.142;27.992;2023-08-06T12:00:05;24.70;60.90
26479;DHT22;14163;-26.142;27.992;2023-08-06T12:02:35;24.60;54.60
26479;DHT22;14163;-26.142;27.992;2023-08-06T12:05:09;24.40;53.80
26479;DHT22;14163;-26.142;27.992;2023-08-06T12:07:40;24.50;55.40
26479;DHT22;14163;-26.142;27.992;2023-08-06T12:10:11;24.70;54.50
26479;DHT22;14163;-26.142;27.992;2023-08-06T12:12:41;24.80;53.90
26479;DHT22;14163;-26.142;27.992;2023-08-06T12:15:11;25.00;53.60
26479;DHT22;14163;-26.142;27.992;2023-08-06T12:17:40;25.10;53.30
26479;DHT22;14163;-26.142;27.992;2023-08-06T12:20:10;25.10;52.40
26479;DHT22;14163;-26.142;27.992;2023-08-06T12:22:39;25.20;51.80
26479;DHT22;14163;-26.142;27.992;2023-08-06T12:25:11;25.20;52.50
26479;DHT22;14163;-26.142;27.992;2023-08-06T12:27:44;25.10;51.20
26479;DHT22;14163;-26.142;27.992;2023-08-06T12:30:14;25.10;52.00
26479;DHT22;14163;-26.142;27.992;2023-08-06T12:32:43;24.90;50.80
26479;DHT22;14163;-26.142;27.992;2023-08-06T12:35:12;24.90;50.90
26479;DHT22;14163;-26.142;27.992;2023-08-06T12:37:41;24.70;51.10
26479;DHT22;14163;-26.142;27.992;2023-08-06T12:40:12;24.60;50.80
26479;DHT22;14163;-26.142;27.992;2023-08-06T12:42:42;24.60;50.50
26479;DHT22;14163;-26.142;27.992;2023-08-06T12:45:11;24.70;50.60
26479;DHT22;14163;-26.142;27.992;2023-08-06T12:47:41;24.70;50.30
26479;DHT22;14163;-26.142;27.992;2023-08-06T12:50:10;24.80;49.90
26479;DHT22;14163;-26.142;27.992;2023-08-06T12:52:39;24.90;50.30
26479;DHT22;14163;-26.142;27.992;2023-08-06T12:55:09;25.10;50.50
26479;DHT22;14163;-26.142;27.992;2023-08-06T12:57:40;25.30;50.80
26479;DHT22;14163;-26.142;27.992;2023-08-06T13:00:10;25.40;50.40
26479;DHT22;14163;-26.142;27.992;2023-08-06T13:02:39;25.30;50.30
26479;DHT22;14163;-26.142;27.992;2023-08-06T13:05:08;25.40;49.80
26479;DHT22;14163;-26.142;27.992;2023-08-06T13:07:37;25.60;49.90
26479;DHT22;14163;-26.142;27.992;2023-08-06T13:10:07;25.70;48.80
26479;DHT22;14163;-26.142;27.992;2023-08-06T13:12:38;25.60;48.80
26479;DHT22;14163;-26.142;27.992;2023-08-06T13:15:08;25.40;48.90
26479;DHT22;14163;-26.142;27.992;2023-08-06T13:17:38;25.30;49.30
26479;DHT22;14163;-26.142;27.992;2023-08-06T13:20:07;25.40;49.60
26479;DHT22;14163;-26.142;27.992;2023-08-06T13:22:37;25.20;48.80
26479;DHT22;14163;-26.142;27.992;2023-08-06T13:25:06;25.20;48.30
26479;DHT22;14163;-26.142;27.992;2023-08-06T13:27:38;25.20;48.40
26479;DHT22;14163;-26.142;27.992;2023-08-06T13:30:11;25.20;48.90
26479;DHT22;14163;-26.142;27.992;2023-08-06T13:32:40;25.20;48.50
26479;DHT22;14163;-26.142;27.992;2023-08-06T13:35:09;24.80;48.00
26479;DHT22;14163;-26.142;27.992;2023-08-06T13:37:39;24.60;48.10
26479;DHT22;14163;-26.142;27.992;2023-08-06T13:40:08;24.70;48.40
26479;DHT22;14163;-26.142;27.992;2023-08-06T13:42:39;25.00;49.30
26479;DHT22;14163;-26.142;27.992;2023-08-06T13:45:09;25.00;48.70
26479;DHT22;14163;-26.142;27.992;2023-08-06T13:47:38;25.00;48.50
26479;DHT22;14163;-26.142;27.992;2023-08-06T13:50:08;24.90;48.10
26479;DHT22;14163;-26.142;27.992;2023-08-06T13:52:38;24.80;48.00
26479;DHT22;14163;-26.142;27.992;2023-08-06T13:55:08;24.60;47.80
26479;DHT22;14163;-26.142;27.992;2023-08-06T13:57:39;24.30;47.70
26479;DHT22;14163;-26.142;27.992;2023-08-06T14:00:09;24.10;47.80
26479;DHT22;14163;-26.142;27.992;2023-08-06T14:02:38;24.20;48.00
26479;DHT22;14163;-26.142;27.992;2023-08-06T14:05:08;24.20;47.60
26479;DHT22;14163;-26.142;27.992;2023-08-06T14:07:37;24.30;47.60
26479;DHT22;14163;-26.142;27.992;2023-08-06T14:10:07;24.50;48.40
26479;DHT22;14163;-26.142;27.992;2023-08-06T14:12:38;24.40;47.80
26479;DHT22;14163;-26.142;27.992;2023-08-06T14:15:08;24.50;48.10
26479;DHT22;14163;-26.142;27.992;2023-08-06T14:17:37;24.40;47.50
26479;DHT22;14163;-26.142;27.992;2023-08-06T14:20:08;24.40;48.20
26479;DHT22;14163;-26.142;27.992;2023-08-06T14:22:38;24.60;48.00
26479;DHT22;14163;-26.142;27.992;2023-08-06T14:25:08;24.40;47.50
26479;DHT22;14163;-26.142;27.992;2023-08-06T14:27:39;24.30;47.50
26479;DHT22;14163;-26.142;27.992;2023-08-06T14:30:09;24.30;48.10
26479;DHT22;14163;-26.142;27.992;2023-08-06T14:32:38;24.50;48.20
26479;DHT22;14163;-26.142;27.992;2023-08-06T14:35:08;24.50;47.40
26479;DHT22;14163;-26.142;27.992;2023-08-06T14:37:37;24.10;47.10
26479;DHT22;14163;-26.142;27.992;2023-08-06T14:40:08;23.90;47.40
26479;DHT22;14163;-26.142;27.992;2023-08-06T14:42:39;24.00;47.30
26479;DHT22;14163;-26.142;27.992;2023-08-06T14:45:09;24.20;47.60
26479;DHT22;14163;-26.142;27.992;2023-08-06T14:47:39;24.30;47.30
26479;DHT22;14163;-26.142;27.992;2023-08-06T14:50:08;24.20;47.50
26479;DHT22;14163;-26.142;27.992;2023-08-06T14:52:37;24.10;47.30
26479;DHT22;14163;-26.142;27.992;2023-08-06T14:55:07;24.20;47.30
26479;DHT22;14163;-26.142;27.992;2023-08-06T14:57:38;24.00;47.00
26479;DHT22;14163;-26.142;27.992;2023-08-06T15:00:08;23.70;46.90
26479;DHT22;14163;-26.142;27.992;2023-08-06T15:02:38;23.50;47.50
26479;DHT22;14163;-26.142;27.992;2023-08-06T15:05:07;23.50;47.50
26479;DHT22;14163;-26.142;27.992;2023-08-06T15:07:37;23.40;47.20
26479;DHT22;14163;-26.142;27.992;2023-08-06T15:10:07;23.50;47.40
26479;DHT22;14163;-26.142;27.992;2023-08-06T15:12:38;23.30;47.10
26479;DHT22;14163;-26.142;27.992;2023-08-06T15:15:08;23.40;47.30
26479;DHT22;14163;-26.142;27.992;2023-08-06T15:17:38;23.50;47.40
26479;DHT22;14163;-26.142;27.992;2023-08-06T15:20:08;23.40;47.80
26479;DHT22;14163;-26.142;27.992;2023-08-06T15:22:37;23.50;47.70
26479;DHT22;14163;-26.142;27.992;2023-08-06T15:25:07;23.50;47.50
26479;DHT22;14163;-26.142;27.992;2023-08-06T15:27:38;23.40;47.60
26479;DHT22;14163;-26.142;27.992;2023-08-06T15:30:08;23.40;47.70
26479;DHT22;14163;-26.142;27.992;2023-08-06T15:32:37;23.50;47.50
26479;DHT22;14163;-26.142;27.992;2023-08-06T15:35:11;23.40;47.50
26479;DHT22;14163;-26.142;27.992;2023-08-06T15:37:43;23.50;47.80
26479;DHT22;14163;-26.142;27.992;2023-08-06T15:40:12;23.40;47.60
26479;DHT22;14163;-26.142;27.992;2023-08-06T15:42:43;23.40;47.60
26479;DHT22;14163;-26.142;27.992;2023-08-06T15:45:12;23.40;47.70
26479;DHT22;14163;-26.142;27.992;2023-08-06T15:47:41;23.30;47.90
26479;DHT22;14163;-26.142;27.992;2023-08-06T15:50:11;23.40;55.40
26479;DHT22;14163;-26.142;27.992;2023-08-06T15:52:40;23.40;54.70
26479;DHT22;14163;-26.142;27.992;2023-08-06T15:55:10;23.40;56.20
26479;DHT22;14163;-26.142;27.992;2023-08-06T15:57:39;23.30;53.40
26479;DHT22;14163;-26.142;27.992;2023-08-06T16:00:12;23.20;54.20
26479;DHT22;14163;-26.142;27.992;2023-08-06T16:02:41;23.20;54.90
26479;DHT22;14163;-26.142;27.992;2023-08-06T16:05:10;23.10;53.70
26479;DHT22;14163;-26.142;27.992;2023-08-06T16:07:40;23.10;51.30
26479;DHT22;14163;-26.142;27.992;2023-08-06T16:10:09;23.00;51.20
26479;DHT22;14163;-26.142;27.992;2023-08-06T16:12:39;23.00;51.20
26479;DHT22;14163;-26.142;27.992;2023-08-06T16:15:10;22.90;50.90
26479;DHT22;14163;-26.142;27.992;2023-08-06T16:17:42;22.80;50.60
26479;DHT22;14163;-26.142;27.992;2023-08-06T16:20:12;22.70;50.80
26479;DHT22;14163;-26.142;27.992;2023-08-06T16:22:42;22.50;50.30
26479;DHT22;14163;-26.142;27.992;2023-08-06T16:25:13;22.40;51.20
26479;DHT22;14163;-26.142;27.992;2023-08-06T16:27:42;22.50;51.40
26479;DHT22;14163;-26.142;27.992;2023-08-06T16:30:13;22.40;51.00
26479;DHT22;14163;-26.142;27.992;2023-08-06T16:32:43;22.40;51.10
26479;DHT22;14163;-26.142;27.992;2023-08-06T16:35:13;22.30;51.20
26479;DHT22;14163;-26.142;27.992;2023-08-06T16:37:44;22.30;51.10
26479;DHT22;14163;-26.142;27.992;2023-08-06T16:40:14;22.10;50.90
26479;DHT22;14163;-26.142;27.992;2023-08-06T16:42:43;22.00;51.80
26479;DHT22;14163;-26.142;27.992;2023-08-06T16:45:14;22.00;51.40
26479;DHT22;14163;-26.142;27.992;2023-08-06T16:47:43;22.00;51.60
26479;DHT22;14163;-26.142;27.992;2023-08-06T16:50:12;21.90;51.80
26479;DHT22;14163;-26.142;27.992;2023-08-06T16:52:42;21.70;52.10
26479;DHT22;14163;-26.142;27.992;2023-08-06T16:55:11;21.50;52.00
26479;DHT22;14163;-26.142;27.992;2023-08-06T16:57:41;21.50;52.20
26479;DHT22;14163;-26.142;27.992;2023-08-06T17:00:13;21.40;52.60
26479;DHT22;14163;-26.142;27.992;2023-08-06T17:02:42;21.40;52.30
26479;DHT22;14163;-26.142;27.992;2023-08-06T17:05:11;21.30;52.30
26479;DHT22;14163;-26.142;27.992;2023-08-06T17:07:40;21.20;52.30
26479;DHT22;14163;-26.142;27.992;2023-08-06T17:10:11;21.10;52.70
26479;DHT22;14163;-26.142;27.992;2023-08-06T17:12:40;21.10;52.90
26479;DHT22;14163;-26.142;27.992;2023-08-06T17:15:10;21.10;53.10
26479;DHT22;14163;-26.142;27.992;2023-08-06T17:17:41;21.20;53.90
26479;DHT22;14163;-26.142;27.992;2023-08-06T17:20:11;21.20;54.10
26479;DHT22;14163;-26.142;27.992;2023-08-06T17:22:40;21.20;54.50
26479;DHT22;14163;-26.142;27.992;2023-08-06T17:25:10;21.20;54.70
26479;DHT22;14163;-26.142;27.992;2023-08-06T17:27:39;21.10;54.80